createdAt,value
2023-03-16T00:36:22.196Z,0.8
2023-03-16T01:06:40.126Z,0.45
2023-03-16T01:36:57.844Z,0.1
2023-03-16T02:07:15.249Z,-0.25
2023-03-16T02:37:31.576Z,-0.05
2023-03-16T03:07:49.043Z,-0.05
2023-03-16T03:38:07.074Z,0.05
2023-03-16T04:08:24.549Z,0.2
2023-03-16T04:38:44.591Z,0.25
2023-03-16T05:09:02.124Z,0.3
2023-03-16T05:39:21.897Z,0.55
2023-03-16T06:09:41.854Z,1.35
2023-03-16T06:40:02.820Z,2.85
2023-03-16T07:10:24.632Z,3.9
2023-03-16T07:40:48.137Z,7.6
2023-03-16T08:11:18.038Z,10.15
2023-03-16T09:11:57.094Z,8.6
2023-03-16T09:42:12.091Z,11.2
2023-03-16T10:12:38.942Z,14.9
2023-03-16T10:43:04.778Z,15.6
2023-03-16T11:13:19.396Z,15.45
2023-03-16T11:43:26.293Z,13.1
2023-03-16T12:13:42.347Z,11.4
2023-03-16T12:44:07.042Z,14.1
2023-03-16T13:14:19.001Z,12.55
2023-03-16T13:44:29.489Z,11.65
2023-03-16T14:14:47.635Z,11.65
2023-03-16T14:45:05.023Z,11.9
2023-03-16T15:15:19.414Z,11.75
2023-03-16T15:45:35.021Z,11.4
2023-03-16T16:15:54.669Z,11.15
2023-03-16T16:46:11.876Z,10.8
2023-03-16T17:16:30.601Z,10.3
2023-03-16T17:46:47.079Z,9.85
2023-03-16T18:17:03.696Z,9.45
2023-03-16T18:47:22.156Z,9.2
2023-03-16T19:17:43.216Z,8.85
2023-03-16T19:48:01.421Z,8.45
2023-03-16T20:18:19.414Z,8.05
2023-03-16T20:48:35.738Z,7.65
2023-03-16T21:18:53.985Z,7.35
2023-03-16T21:49:12.013Z,7.05
2023-03-16T22:19:30.528Z,6.95
2023-03-16T22:49:48.373Z,6.75
2023-03-16T23:20:06.613Z,6.75
2023-03-16T23:50:24.759Z,6.7
